createdAt,value
2023-03-30T00:01:17.266Z,100690.59
2023-03-30T00:03:44.250Z,100688.59
2023-03-30T00:06:09.082Z,100688.94
2023-03-30T00:08:33.540Z,100692.72
2023-03-30T00:11:02.658Z,100688.94
2023-03-30T00:13:26.611Z,100685.81
2023-03-30T00:15:51.625Z,100689.25
2023-03-30T00:18:16.046Z,100676.34
2023-03-30T00:20:43.234Z,100674.97
2023-03-30T00:23:07.071Z,100665.81
2023-03-30T00:25:30.852Z,100671.94
2023-03-30T00:27:54.584Z,100677.41
2023-03-30T00:30:20.267Z,100663.75
2023-03-30T00:32:44.209Z,100662.47
2023-03-30T00:35:09.224Z,100655.91
2023-03-30T00:37:37.400Z,100655.31
2023-03-30T00:40:01.291Z,100660.16
2023-03-30T00:42:25.484Z,100655.13
2023-03-30T00:45:26.584Z,100648.34
2023-03-30T00:47:56.491Z,100652.56
2023-03-30T00:50:23.913Z,100643.97
2023-03-30T00:52:52.428Z,100628.25
2023-03-30T00:55:16.405Z,100623.59
2023-03-30T00:57:42.751Z,100619.50
2023-03-30T01:00:11.700Z,100616.53
2023-03-30T01:02:37.951Z,100602.28
2023-03-30T01:05:02.416Z,100602.66
2023-03-30T01:07:26.682Z,100597.13
2023-03-30T01:09:53.857Z,100595.31
2023-03-30T01:12:17.589Z,100582.59
2023-03-30T01:14:43.191Z,100582.34
2023-03-30T01:17:18.908Z,100573.50
2023-03-30T01:20:49.334Z,100575.75
2023-03-30T01:23:56.113Z,100561.03
2023-03-30T01:26:41.707Z,100547.03
2023-03-30T01:29:12.992Z,100544.91
2023-03-30T01:32:10.090Z,100534.97
2023-03-30T01:35:01.891Z,100527.88
2023-03-30T01:37:51.660Z,100520.22
2023-03-30T01:40:19.161Z,100527.47
2023-03-30T01:42:51.794Z,100531.69
2023-03-30T01:45:23.244Z,100523.75
2023-03-30T01:47:55.524Z,100522.91
2023-03-30T01:50:26.657Z,100520.94
2023-03-30T01:52:58.608Z,100526.31
2023-03-30T01:55:30.211Z,100537.09
2023-03-30T01:57:59.379Z,100531.44
2023-03-30T02:00:25.479Z,100531.00
2023-03-30T02:02:55.007Z,100527.94
2023-03-30T02:05:21.176Z,100529.13
2023-03-30T02:07:48.292Z,100521.72
2023-03-30T02:10:16.012Z,100516.47
2023-03-30T02:12:41.869Z,100505.16
2023-03-30T02:15:10.494Z,100510.38
2023-03-30T02:17:36.001Z,100502.31
2023-03-30T02:20:01.115Z,100505.31
2023-03-30T02:22:26.365Z,100499.53
2023-03-30T02:24:55.211Z,100497.19
2023-03-30T02:27:19.642Z,100489.78
2023-03-30T02:29:47.741Z,100485.88
2023-03-30T02:32:22.224Z,100485.03
2023-03-30T02:35:07.283Z,100472.53
2023-03-30T02:37:59.284Z,100465.66
2023-03-30T02:40:35.280Z,100471.56
2023-03-30T02:43:24.646Z,100463.41
2023-03-30T02:45:55.232Z,100445.81
2023-03-30T02:48:35.071Z,100435.00
2023-03-30T02:51:15.773Z,100438.53
2023-03-30T02:54:08.047Z,100429.38
2023-03-30T02:57:05.921Z,100436.44
2023-03-30T02:59:37.302Z,100442.84
2023-03-30T03:02:07.953Z,100434.16
2023-03-30T03:04:34.257Z,100433.44
2023-03-30T03:07:22.467Z,100426.16
2023-03-30T03:09:46.601Z,100419.16
2023-03-30T03:12:11.001Z,100410.63
2023-03-30T03:14:35.147Z,100407.00
2023-03-30T03:16:59.006Z,100407.72
2023-03-30T03:19:31.262Z,100406.09
2023-03-30T03:21:55.150Z,100400.81
2023-03-30T03:24:19.157Z,100399.16
2023-03-30T03:27:11.932Z,100391.63
2023-03-30T03:29:51.121Z,100394.94
2023-03-30T03:32:14.920Z,100397.31
2023-03-30T03:34:44.727Z,100402.50
2023-03-30T03:37:09.879Z,100389.94
2023-03-30T03:39:33.806Z,100389.28
2023-03-30T03:42:04.854Z,100386.38
2023-03-30T03:44:28.966Z,100382.38
2023-03-30T03:46:53.000Z,100382.38
2023-03-30T03:49:16.919Z,100382.41
2023-03-30T03:51:42.060Z,100372.19
2023-03-30T03:54:05.989Z,100370.47
2023-03-30T03:56:30.406Z,100352.25
2023-03-30T03:58:54.239Z,100342.16
2023-03-30T04:01:18.096Z,100344.66
2023-03-30T04:03:42.207Z,100345.97
2023-03-30T04:06:06.193Z,100350.50
2023-03-30T04:08:31.727Z,100346.97
2023-03-30T04:11:08.729Z,100336.75
2023-03-30T04:14:01.884Z,100337.13
2023-03-30T04:16:34.313Z,100328.69
2023-03-30T04:19:19.810Z,100327.41
2023-03-30T04:22:06.082Z,100330.06
2023-03-30T04:25:05.646Z,100332.19
2023-03-30T04:27:31.966Z,100337.53
2023-03-30T04:30:20.726Z,100333.91
2023-03-30T04:33:04.926Z,100325.69
2023-03-30T04:35:51.765Z,100317.78
2023-03-30T04:38:31.285Z,100313.69
2023-03-30T04:40:56.861Z,100316.38
2023-03-30T04:43:31.484Z,100302.97
2023-03-30T04:46:24.206Z,100297.72
2023-03-30T04:49:06.982Z,100306.75
2023-03-30T04:51:49.170Z,100305.09
2023-03-30T04:54:33.410Z,100307.91
2023-03-30T04:57:24.932Z,100300.13
2023-03-30T05:00:16.366Z,100303.53
2023-03-30T05:03:15.399Z,100291.59
2023-03-30T05:06:02.531Z,100295.66
2023-03-30T05:08:41.981Z,100283.72
2023-03-30T05:11:35.064Z,100284.50
2023-03-30T05:14:18.871Z,100279.28
2023-03-30T05:17:01.888Z,100268.44
2023-03-30T05:19:35.094Z,100264.78
2023-03-30T05:22:17.079Z,100258.91
2023-03-30T05:25:08.522Z,100246.47
2023-03-30T05:27:43.218Z,100236.75
2023-03-30T05:30:34.348Z,100239.56
2023-03-30T05:33:16.450Z,100237.19
2023-03-30T05:35:58.606Z,100241.47
2023-03-30T05:38:57.703Z,100252.16
2023-03-30T05:41:53.860Z,100259.13
2023-03-30T05:44:33.490Z,100251.75
2023-03-30T05:47:18.919Z,100248.13
2023-03-30T05:49:57.501Z,100246.81
2023-03-30T05:52:26.346Z,100237.66
2023-03-30T05:55:08.567Z,100238.75
2023-03-30T05:57:59.243Z,100231.41
2023-03-30T06:00:37.375Z,100234.25
2023-03-30T06:03:12.206Z,100229.38
2023-03-30T06:05:38.983Z,100232.19
2023-03-30T06:08:04.622Z,100218.09
2023-03-30T06:10:28.948Z,100213.47
2023-03-30T06:12:53.259Z,100213.72
2023-03-30T06:15:43.100Z,100201.28
2023-03-30T06:18:13.268Z,100214.59
2023-03-30T06:20:42.804Z,100208.91
2023-03-30T06:23:06.937Z,100201.28
2023-03-30T06:25:30.997Z,100206.81
2023-03-30T06:27:55.082Z,100202.41
2023-03-30T06:30:19.252Z,100200.00
2023-03-30T06:32:46.585Z,100206.22
2023-03-30T06:35:31.957Z,100200.56
2023-03-30T06:37:57.026Z,100202.53
2023-03-30T06:40:20.952Z,100204.66
2023-03-30T06:42:47.155Z,100202.81
2023-03-30T06:45:18.848Z,100195.44
2023-03-30T06:47:44.130Z,100197.13
2023-03-30T06:50:09.582Z,100191.31
2023-03-30T06:52:55.969Z,100193.63
2023-03-30T06:55:21.835Z,100190.28
2023-03-30T06:57:45.666Z,100177.41
2023-03-30T07:00:14.192Z,100182.09
2023-03-30T07:02:57.500Z,100182.66
2023-03-30T07:05:34.636Z,100168.28
2023-03-30T07:08:11.252Z,100169.66
2023-03-30T07:10:39.115Z,100169.78
2023-03-30T07:13:04.932Z,100164.59
2023-03-30T07:15:29.122Z,100157.47
2023-03-30T07:17:53.628Z,100158.38
2023-03-30T07:20:17.532Z,100156.38
2023-03-30T07:23:07.878Z,100157.50
2023-03-30T07:25:34.044Z,100153.69
2023-03-30T07:28:06.656Z,100153.47
2023-03-30T07:30:30.796Z,100141.63
2023-03-30T07:33:00.351Z,100137.94
2023-03-30T07:35:24.215Z,100136.13
2023-03-30T07:37:50.813Z,100125.34
2023-03-30T07:40:15.829Z,100123.31
2023-03-30T07:42:44.165Z,100125.81
2023-03-30T07:45:09.874Z,100124.50
2023-03-30T07:47:33.808Z,100128.78
2023-03-30T07:49:57.813Z,100141.50
2023-03-30T07:52:21.991Z,100126.41
2023-03-30T07:54:51.427Z,100112.78
2023-03-30T07:57:19.682Z,100114.56
2023-03-30T07:59:44.893Z,100118.44
2023-03-30T08:02:23.401Z,100114.69
2023-03-30T08:04:50.302Z,100113.38
2023-03-30T08:07:20.569Z,100124.22
2023-03-30T08:09:48.366Z,100124.03
2023-03-30T08:12:12.079Z,100116.84
2023-03-30T08:14:36.217Z,100112.50
2023-03-30T08:17:01.331Z,100099.72
2023-03-30T08:19:28.622Z,100103.63
2023-03-30T08:21:52.566Z,100104.06
2023-03-30T08:24:16.378Z,100102.13
2023-03-30T08:26:40.095Z,100100.84
2023-03-30T08:29:03.999Z,100084.84
2023-03-30T08:31:27.801Z,100090.03
2023-03-30T08:33:53.167Z,100086.59
2023-03-30T08:36:17.043Z,100072.50
2023-03-30T08:38:41.246Z,100078.34
2023-03-30T08:42:11.906Z,100075.03
2023-03-30T08:44:38.107Z,100076.53
2023-03-30T08:47:04.407Z,100080.81
2023-03-30T08:49:31.480Z,100083.44
2023-03-30T08:51:57.076Z,100076.63
2023-03-30T08:54:25.927Z,100069.41
2023-03-30T08:57:01.380Z,100063.63
2023-03-30T08:59:36.914Z,100063.69
2023-03-30T09:02:03.350Z,100053.78
2023-03-30T09:04:45.774Z,100070.72
2023-03-30T09:07:17.166Z,100073.41
2023-03-30T09:09:48.645Z,100070.84
2023-03-30T09:12:21.530Z,100061.19
2023-03-30T09:14:52.143Z,100072.22
2023-03-30T09:17:21.272Z,100063.72
2023-03-30T09:19:54.076Z,100067.53
2023-03-30T09:22:19.905Z,100055.34
2023-03-30T09:24:43.852Z,100048.78
2023-03-30T09:27:17.134Z,100040.69
2023-03-30T09:29:48.522Z,100046.38
2023-03-30T09:32:16.501Z,100048.84
2023-03-30T09:34:49.111Z,100050.81
2023-03-30T09:37:16.338Z,100042.19
2023-03-30T09:39:41.410Z,100052.53
2023-03-30T09:42:29.294Z,100069.16
2023-03-30T09:44:57.253Z,100057.13
2023-03-30T09:47:27.053Z,100061.19
2023-03-30T09:49:58.627Z,100054.78
2023-03-30T09:52:24.553Z,100047.13
2023-03-30T09:54:48.177Z,100062.41
2023-03-30T09:57:28.419Z,100057.31
2023-03-30T09:59:52.942Z,100049.22
2023-03-30T10:02:22.284Z,100060.88
2023-03-30T10:05:03.835Z,100065.47
2023-03-30T10:07:30.884Z,100061.34
2023-03-30T10:09:55.056Z,100057.63
2023-03-30T10:12:19.068Z,100070.75
2023-03-30T10:14:42.945Z,100065.78
2023-03-30T10:17:07.985Z,100062.81
2023-03-30T10:19:36.305Z,100066.69
2023-03-30T10:22:04.590Z,100073.41
2023-03-30T10:24:31.622Z,100066.69
2023-03-30T10:26:58.926Z,100075.13
2023-03-30T10:29:25.245Z,100079.38
2023-03-30T10:31:51.710Z,100074.09
2023-03-30T10:34:20.638Z,100075.00
2023-03-30T10:36:45.349Z,100071.09
2023-03-30T10:39:18.299Z,100067.41
2023-03-30T10:41:43.761Z,100058.53
2023-03-30T10:44:20.072Z,100057.03
2023-03-30T10:46:44.295Z,100062.78
2023-03-30T10:49:20.170Z,100039.13
2023-03-30T10:52:01.597Z,100054.09
2023-03-30T10:54:34.244Z,100038.91
2023-03-30T10:57:04.383Z,100041.38
2023-03-30T10:59:46.652Z,100030.53
2023-03-30T11:02:45.088Z,100021.91
2023-03-30T11:05:15.687Z,100029.53
2023-03-30T11:07:45.570Z,100034.50
2023-03-30T11:10:19.950Z,100029.59
2023-03-30T11:12:49.457Z,100036.91
2023-03-30T11:15:20.237Z,100022.59
2023-03-30T11:17:58.976Z,100028.00
2023-03-30T11:20:31.065Z,100027.72
2023-03-30T11:23:02.870Z,100022.16
2023-03-30T11:25:34.752Z,100019.13
2023-03-30T11:28:08.736Z,100019.34
2023-03-30T11:30:35.532Z,100025.06
2023-03-30T11:33:07.013Z,100012.47
2023-03-30T11:35:38.268Z,100010.16
2023-03-30T11:38:10.501Z,100013.72
2023-03-30T11:40:44.414Z,100012.63
2023-03-30T11:43:11.021Z,100009.53
2023-03-30T11:45:49.040Z,99995.44
2023-03-30T11:48:50.770Z,99991.47
2023-03-30T11:51:40.066Z,99991.63
2023-03-30T11:54:31.860Z,99991.69
2023-03-30T11:57:07.504Z,99990.00
2023-03-30T11:59:42.901Z,99978.91
2023-03-30T12:02:22.387Z,99973.53
2023-03-30T12:04:51.404Z,99973.00
2023-03-30T12:07:31.666Z,99963.72
2023-03-30T12:09:58.110Z,99959.34
2023-03-30T12:12:32.963Z,99955.56
2023-03-30T12:15:11.088Z,99949.66
2023-03-30T12:17:46.198Z,99937.84
2023-03-30T12:20:29.334Z,99925.09
2023-03-30T12:22:57.772Z,99919.34
2023-03-30T12:25:31.949Z,99927.59
2023-03-30T12:28:14.071Z,99915.28
2023-03-30T12:30:48.579Z,99916.56
2023-03-30T12:33:18.634Z,99902.28
2023-03-30T12:36:00.710Z,99902.84
2023-03-30T12:38:26.798Z,99900.44
2023-03-30T12:41:03.903Z,99884.78
2023-03-30T12:43:40.083Z,99882.50
2023-03-30T12:46:14.223Z,99885.78
2023-03-30T12:48:52.560Z,99881.88
2023-03-30T12:51:32.047Z,99868.28
2023-03-30T12:54:14.862Z,99855.06
2023-03-30T12:56:47.665Z,99853.75
2023-03-30T12:59:54.070Z,99847.16
2023-03-30T13:02:40.573Z,99840.72
2023-03-30T13:05:05.708Z,99837.53
2023-03-30T13:07:36.377Z,99849.00
2023-03-30T13:10:05.689Z,99837.47
2023-03-30T13:12:38.032Z,99829.41
2023-03-30T13:15:21.510Z,99831.16
2023-03-30T13:18:00.835Z,99822.34
2023-03-30T13:20:33.961Z,99821.72
2023-03-30T13:23:07.874Z,99814.91
2023-03-30T13:25:40.634Z,99818.38
2023-03-30T13:28:37.315Z,99818.41
2023-03-30T13:31:12.213Z,99813.34
2023-03-30T13:33:40.072Z,99836.44
2023-03-30T13:36:09.779Z,99889.00
2023-03-30T13:39:05.710Z,99941.56
2023-03-30T13:41:42.974Z,99962.28
2023-03-30T13:44:24.875Z,99996.34
2023-03-30T13:46:54.469Z,100012.22
2023-03-30T13:49:35.286Z,100015.84
2023-03-30T13:52:05.625Z,100016.44
2023-03-30T13:54:34.460Z,100003.16
2023-03-30T13:57:02.772Z,99995.81
2023-03-30T13:59:31.222Z,99975.34
2023-03-30T14:02:00.229Z,99974.31
2023-03-30T14:04:24.712Z,99976.31
2023-03-30T14:06:53.717Z,99982.44
2023-03-30T14:09:23.696Z,99976.53
2023-03-30T14:11:50.709Z,99985.13
2023-03-30T14:14:23.214Z,99977.66
2023-03-30T14:16:47.285Z,99982.72
2023-03-30T14:19:22.314Z,99974.94
2023-03-30T14:21:48.114Z,99985.16
2023-03-30T14:24:16.796Z,99968.94
2023-03-30T14:26:42.759Z,99969.78
2023-03-30T14:29:24.711Z,99967.56
2023-03-30T14:32:07.313Z,99958.28
2023-03-30T14:34:36.189Z,99953.72
2023-03-30T14:37:03.337Z,99954.06
2023-03-30T14:39:27.445Z,99957.63
2023-03-30T14:41:52.122Z,99946.63
2023-03-30T14:44:17.598Z,99948.81
2023-03-30T14:46:46.959Z,99945.94
2023-03-30T14:49:19.904Z,99950.00
2023-03-30T14:51:47.948Z,99960.47
2023-03-30T14:54:19.014Z,99953.56
2023-03-30T14:56:44.823Z,99953.53
2023-03-30T14:59:09.748Z,99941.25
2023-03-30T15:01:35.175Z,99953.72
2023-03-30T15:04:00.696Z,99955.56
2023-03-30T15:06:27.630Z,99956.75
2023-03-30T15:08:53.046Z,99965.53
2023-03-30T15:11:22.963Z,99963.03
2023-03-30T15:13:51.966Z,99965.69
2023-03-30T15:16:22.031Z,99965.19
2023-03-30T15:18:46.206Z,99972.28
2023-03-30T15:21:11.768Z,99982.41
2023-03-30T15:23:40.944Z,99978.72
2023-03-30T15:26:07.951Z,99981.91
2023-03-30T15:28:37.982Z,99992.31
2023-03-30T15:31:01.892Z,99989.13
2023-03-30T15:33:32.649Z,99997.09
2023-03-30T15:35:56.619Z,99995.25
2023-03-30T15:38:30.593Z,100008.06
2023-03-30T15:40:54.364Z,100008.00
2023-03-30T15:43:23.284Z,100009.59
2023-03-30T15:45:51.111Z,100008.38
2023-03-30T15:48:16.789Z,100002.84
2023-03-30T15:50:41.189Z,100009.94
2023-03-30T15:53:06.103Z,100014.31
2023-03-30T15:55:33.685Z,100006.03
2023-03-30T15:57:57.651Z,100006.06
2023-03-30T16:00:25.706Z,100009.41
2023-03-30T16:02:57.437Z,100011.94
2023-03-30T16:05:24.134Z,100016.16
2023-03-30T16:07:48.362Z,100013.81
2023-03-30T16:10:15.908Z,100012.09
2023-03-30T16:12:43.104Z,100018.59
2023-03-30T16:15:08.133Z,100013.22
2023-03-30T16:17:34.399Z,100015.97
2023-03-30T16:19:58.237Z,100011.91
2023-03-30T16:22:21.945Z,100017.19
2023-03-30T16:24:46.350Z,100008.78
2023-03-30T16:27:12.004Z,100017.88
2023-03-30T16:29:35.833Z,100013.81
2023-03-30T16:32:00.043Z,100018.22
2023-03-30T16:34:26.701Z,100018.72
2023-03-30T16:36:51.046Z,100013.19
2023-03-30T16:39:20.429Z,100024.34
2023-03-30T16:41:44.822Z,100034.09
2023-03-30T16:44:08.671Z,100025.28
2023-03-30T16:46:32.366Z,100022.97
2023-03-30T16:48:56.186Z,100025.19
2023-03-30T16:51:21.624Z,100028.19
2023-03-30T16:53:45.442Z,100030.53
2023-03-30T16:56:17.888Z,100022.81
2023-03-30T16:58:41.608Z,100023.84
2023-03-30T17:01:05.776Z,100025.69
2023-03-30T17:03:30.162Z,100033.09
2023-03-30T17:05:53.867Z,100029.72
2023-03-30T17:08:23.597Z,100029.38
2023-03-30T17:10:47.225Z,100027.81
2023-03-30T17:13:11.599Z,100028.53
2023-03-30T17:15:38.667Z,100035.44
2023-03-30T17:18:02.752Z,100029.53
2023-03-30T17:20:31.834Z,100039.50
2023-03-30T17:22:55.702Z,100037.81
2023-03-30T17:25:23.526Z,100037.13
2023-03-30T17:27:48.033Z,100040.47
2023-03-30T17:30:21.236Z,100037.78
2023-03-30T17:32:45.269Z,100049.25
2023-03-30T17:35:10.538Z,100067.19
2023-03-30T17:37:34.317Z,100060.00
2023-03-30T17:39:58.049Z,100062.66
2023-03-30T17:42:23.248Z,100063.28
2023-03-30T17:44:46.933Z,100065.53
2023-03-30T17:47:11.051Z,100065.84
2023-03-30T17:49:34.764Z,100073.41
2023-03-30T17:51:58.560Z,100074.59
2023-03-30T17:54:24.700Z,100077.69
2023-03-30T17:56:48.544Z,100072.75
2023-03-30T17:59:14.173Z,100077.50
2023-03-30T18:01:38.000Z,100075.34
2023-03-30T18:04:04.262Z,100077.69
2023-03-30T18:06:28.879Z,100087.06
2023-03-30T18:08:52.967Z,100083.72
2023-03-30T18:11:16.783Z,100088.59
2023-03-30T18:13:40.485Z,100093.16
2023-03-30T18:16:06.177Z,100090.53
2023-03-30T18:18:31.976Z,100091.63
2023-03-30T18:20:57.776Z,100081.84
2023-03-30T18:23:22.461Z,100078.53
2023-03-30T18:25:46.595Z,100081.16
2023-03-30T18:28:18.317Z,100083.13
2023-03-30T18:30:42.168Z,100082.50
2023-03-30T18:33:08.089Z,100090.53
2023-03-30T18:35:35.880Z,100094.09
2023-03-30T18:38:00.720Z,100088.19
2023-03-30T18:40:32.137Z,100096.09
2023-03-30T18:42:56.926Z,100108.88
2023-03-30T18:45:23.613Z,100104.19
2023-03-30T18:47:47.429Z,100109.97
2023-03-30T18:50:18.040Z,100111.13
2023-03-30T18:52:42.011Z,100117.06
2023-03-30T18:55:07.140Z,100112.38
2023-03-30T18:57:30.909Z,100113.53
2023-03-30T18:59:54.599Z,100150.16
2023-03-30T19:02:18.406Z,100193.66
2023-03-30T19:04:42.247Z,100215.03
2023-03-30T19:07:07.473Z,100211.91
2023-03-30T19:09:42.472Z,100211.41
2023-03-30T19:12:07.745Z,100206.72
2023-03-30T19:14:31.358Z,100209.69
2023-03-30T19:16:55.099Z,100212.16
2023-03-30T19:19:19.020Z,100201.97
2023-03-30T19:21:43.261Z,100208.91
2023-03-30T19:24:08.994Z,100223.78
2023-03-30T19:26:32.981Z,100233.69
2023-03-30T19:28:56.645Z,100224.19
2023-03-30T19:31:20.455Z,100212.31
2023-03-30T19:33:44.218Z,100216.38
2023-03-30T19:36:08.920Z,100211.59
2023-03-30T19:38:32.650Z,100217.81
2023-03-30T19:41:01.557Z,100223.19
2023-03-30T19:43:25.245Z,100203.97
2023-03-30T19:45:52.363Z,100183.03
2023-03-30T19:48:16.121Z,100182.56
2023-03-30T19:50:40.788Z,100174.22
2023-03-30T19:53:04.507Z,100162.88
2023-03-30T19:55:29.418Z,100155.97
2023-03-30T19:57:54.474Z,100166.75
2023-03-30T20:00:19.872Z,100161.13
2023-03-30T20:02:45.195Z,100161.78
2023-03-30T20:05:13.077Z,100169.59
2023-03-30T20:07:37.288Z,100169.84
2023-03-30T20:10:01.173Z,100173.97
2023-03-30T20:12:24.831Z,100185.56
2023-03-30T20:14:50.067Z,100181.31
2023-03-30T20:17:13.760Z,100181.88
2023-03-30T20:19:40.648Z,100176.38
2023-03-30T20:22:04.512Z,100180.50
2023-03-30T20:24:28.330Z,100172.53
2023-03-30T20:26:53.401Z,100184.00
2023-03-30T20:29:17.163Z,100183.19
2023-03-30T20:31:42.346Z,100186.00
2023-03-30T20:34:06.538Z,100185.59
2023-03-30T20:36:30.207Z,100199.19
2023-03-30T20:38:56.054Z,100200.84
2023-03-30T20:41:21.628Z,100203.13
2023-03-30T20:43:56.530Z,100211.59
2023-03-30T20:46:22.385Z,100198.59
2023-03-30T20:48:54.057Z,100208.34
2023-03-30T20:51:17.777Z,100202.97
2023-03-30T20:53:42.466Z,100205.09
2023-03-30T20:56:09.272Z,100208.50
2023-03-30T20:58:33.106Z,100197.19
2023-03-30T21:01:01.617Z,100198.72
2023-03-30T21:03:29.255Z,100194.19
2023-03-30T21:06:01.581Z,100193.78
2023-03-30T21:08:25.516Z,100190.69
2023-03-30T21:10:49.354Z,100193.38
2023-03-30T21:13:15.080Z,100187.31
2023-03-30T21:15:38.733Z,100180.22
2023-03-30T21:18:02.502Z,100182.34
2023-03-30T21:20:26.456Z,100182.63
2023-03-30T21:22:51.654Z,100181.91
2023-03-30T21:25:15.383Z,100184.47
2023-03-30T21:27:39.149Z,100185.56
2023-03-30T21:30:02.776Z,100175.13
2023-03-30T21:32:28.686Z,100187.56
2023-03-30T21:34:53.782Z,100182.19
2023-03-30T21:37:17.558Z,100183.19
2023-03-30T21:39:44.199Z,100184.16
2023-03-30T21:42:08.168Z,100181.75
2023-03-30T21:44:34.896Z,100175.97
2023-03-30T21:46:58.667Z,100172.44
2023-03-30T21:49:22.534Z,100170.28
2023-03-30T21:51:46.971Z,100164.66
2023-03-30T21:54:10.991Z,100158.72
2023-03-30T21:56:36.629Z,100154.63
2023-03-30T21:59:00.731Z,100154.34
2023-03-30T22:01:25.240Z,100153.63
2023-03-30T22:03:49.235Z,100147.13
2023-03-30T22:06:16.284Z,100147.00
2023-03-30T22:08:40.579Z,100141.75
2023-03-30T22:11:08.646Z,100137.78
2023-03-30T22:13:34.102Z,100137.06
2023-03-30T22:15:59.024Z,100134.97
2023-03-30T22:18:22.934Z,100133.22
2023-03-30T22:20:47.416Z,100128.59
2023-03-30T22:23:11.226Z,100140.06
2023-03-30T22:25:35.003Z,100134.91
2023-03-30T22:28:01.228Z,100132.81
2023-03-30T22:30:26.443Z,100123.31
2023-03-30T22:32:50.217Z,100130.84
2023-03-30T22:35:14.023Z,100135.66
2023-03-30T22:37:38.071Z,100126.16
2023-03-30T22:40:01.827Z,100120.63
2023-03-30T22:42:26.022Z,100122.91
2023-03-30T22:44:50.369Z,100119.81
2023-03-30T22:47:15.645Z,100122.59
2023-03-30T22:49:40.093Z,100123.19
2023-03-30T22:52:04.808Z,100125.06
2023-03-30T22:54:28.539Z,100121.31
2023-03-30T22:56:52.271Z,100122.31
2023-03-30T22:59:16.545Z,100113.66
2023-03-30T23:01:40.362Z,100115.13
2023-03-30T23:04:05.870Z,100114.81
2023-03-30T23:06:29.604Z,100108.03
2023-03-30T23:08:54.649Z,100114.44
2023-03-30T23:11:21.612Z,100114.53
2023-03-30T23:13:45.384Z,100108.88
2023-03-30T23:16:10.920Z,100104.06
2023-03-30T23:18:35.164Z,100105.47
2023-03-30T23:21:06.251Z,100108.03
2023-03-30T23:23:30.637Z,100104.34
2023-03-30T23:25:54.501Z,100101.41
2023-03-30T23:28:18.485Z,100093.75
2023-03-30T23:30:42.323Z,100091.94
2023-03-30T23:33:06.616Z,100091.47
2023-03-30T23:35:30.386Z,100099.28
2023-03-30T23:37:55.602Z,100097.28
2023-03-30T23:40:19.508Z,100092.19
2023-03-30T23:42:43.274Z,100091.34
2023-03-30T23:45:08.913Z,100089.66
2023-03-30T23:47:32.646Z,100085.69
2023-03-30T23:49:56.361Z,100086.41
2023-03-30T23:52:20.190Z,100095.03
2023-03-30T23:54:45.413Z,100084.53
2023-03-30T23:57:09.896Z,100085.41
2023-03-30T23:59:33.691Z,100083.16
